Arimo, Idaho
Current Conditions -  °F | °C
As of 5:53 AM on Thursday 23 Oct 2014 (Local Time) from KPIH Reporting Station
Clear Clear  
Wind Chill:   Ceiling: Unl
Heat Index:   Visibility: 10mi
Dew Point: -3°   Wind: 0mph
Humidity: 55%   Direction: NA
Pressure: 30.08"   Gusts: NA
Location:  42.56°N, 112.17°W
Report Text: KPIH 231153Z 00000KT 10SM CLR 05/M03 A3008 RMK AO2 SLP173 T00501033 10117 20044 58012
Loading
Personal Weather Stations






























Interactive Weather Map
Tropical Storm Tracking
New forecast layout! Learn more

10-Day Weather Forecast

Advertisements
Track Severe Weather on mobile